sensor_id;sensor_type;location;lat;lon;timestamp;pressure;altitude;pressure_sealevel;temperature;humidity
34243;BME280;20504;43.214;27.920;2023-06-22T00:04:15;99611.97;;;24.75;100.00
34243;BME280;20504;43.214;27.920;2023-06-22T00:06:41;99652.88;;;24.60;100.00
34243;BME280;20504;43.214;27.920;2023-06-22T00:09:06;99659.72;;;24.69;100.00
34243;BME280;20504;43.214;27.920;2023-06-22T00:11:33;99674.56;;;24.47;100.00
34243;BME280;20504;43.214;27.920;2023-06-22T00:13:59;99650.41;;;24.39;100.00
34243;BME280;20504;43.214;27.920;2023-06-22T00:16:24;99690.81;;;24.54;100.00
34243;BME280;20504;43.214;27.920;2023-06-22T00:18:50;99728.97;;;24.72;100.00
34243;BME280;20504;43.214;27.920;2023-06-22T00:21:15;99693.31;;;24.49;100.00
34243;BME280;20504;43.214;27.920;2023-06-22T00:23:41;99727.94;;;24.60;100.00
34243;BME280;20504;43.214;27.920;2023-06-22T00:26:07;99744.19;;;24.46;100.00
34243;BME280;20504;43.214;27.920;2023-06-22T00:28:33;99766.50;;;24.49;100.00
34243;BME280;20504;43.214;27.920;2023-06-22T00:30:59;99782.59;;;24.57;100.00
34243;BME280;20504;43.214;27.920;2023-06-22T00:33:26;99743.56;;;24.44;100.00
34243;BME280;20504;43.214;27.920;2023-06-22T00:35:51;99748.56;;;24.41;100.00
34243;BME280;20504;43.214;27.920;2023-06-22T00:38:18;99756.81;;;24.13;100.00
34243;BME280;20504;43.214;27.920;2023-06-22T00:40:44;99753.59;;;24.37;100.00
34243;BME280;20504;43.214;27.920;2023-06-22T00:43:10;99741.47;;;24.33;100.00
34243;BME280;20504;43.214;27.920;2023-06-22T00:45:35;99789.66;;;24.38;100.00
34243;BME280;20504;43.214;27.920;2023-06-22T00:48:01;99801.53;;;24.50;100.00
34243;BME280;20504;43.214;27.920;2023-06-22T00:50:55;99783.81;;;24.61;100.00
34243;BME280;20504;43.214;27.920;2023-06-22T00:53:43;99811.94;;;24.46;100.00
34243;BME280;20504;43.214;27.920;2023-06-22T00:56:09;99820.25;;;24.32;100.00
34243;BME280;20504;43.214;27.920;2023-06-22T00:58:38;99844.00;;;24.30;100.00
34243;BME280;20504;43.214;27.920;2023-06-22T01:01:06;99884.66;;;24.30;100.00
34243;BME280;20504;43.214;27.920;2023-06-22T01:03:32;99921.59;;;24.03;100.00
34243;BME280;20504;43.214;27.920;2023-06-22T01:06:10;99961.06;;;24.19;100.00
34243;BME280;20504;43.214;27.920;2023-06-22T01:09:02;100023.28;;;24.33;100.00
34243;BME280;20504;43.214;27.920;2023-06-22T01:11:38;100038.91;;;24.31;100.00
34243;BME280;20504;43.214;27.920;2023-06-22T01:14:15;100049.59;;;24.39;100.00
34243;BME280;20504;43.214;27.920;2023-06-22T01:16:44;100063.97;;;24.40;100.00
34243;BME280;20504;43.214;27.920;2023-06-22T01:22:02;100025.09;;;24.26;100.00
34243;BME280;20504;43.214;27.920;2023-06-22T01:24:57;100053.81;;;24.21;100.00
34243;BME280;20504;43.214;27.920;2023-06-22T01:30:11;100082.75;;;24.41;100.00
34243;BME280;20504;43.214;27.920;2023-06-22T01:32:38;100072.81;;;24.27;100.00
34243;BME280;20504;43.214;27.920;2023-06-22T01:35:35;100091.78;;;24.27;100.00
34243;BME280;20504;43.214;27.920;2023-06-22T01:38:01;100088.56;;;24.17;100.00
34243;BME280;20504;43.214;27.920;2023-06-22T01:40:27;100098.56;;;24.38;100.00
34243;BME280;20504;43.214;27.920;2023-06-22T01:42:53;100055.91;;;24.19;100.00
34243;BME280;20504;43.214;27.920;2023-06-22T01:45:19;100066.06;;;24.38;100.00
34243;BME280;20504;43.214;27.920;2023-06-22T01:47:44;100055.94;;;24.60;100.00
34243;BME280;20504;43.214;27.920;2023-06-22T01:50:11;100000.28;;;24.57;100.00
34243;BME280;20504;43.214;27.920;2023-06-22T01:52:36;99972.97;;;24.59;100.00
34243;BME280;20504;43.214;27.920;2023-06-22T01:55:03;99948.16;;;24.62;100.00
34243;BME280;20504;43.214;27.920;2023-06-22T01:57:29;99904.31;;;24.52;100.00
34243;BME280;20504;43.214;27.920;2023-06-22T02:00:12;99883.50;;;24.59;100.00
34243;BME280;20504;43.214;27.920;2023-06-22T02:02:57;99865.56;;;24.58;100.00
34243;BME280;20504;43.214;27.920;2023-06-22T02:05:26;99878.09;;;24.65;100.00
34243;BME280;20504;43.214;27.920;2023-06-22T02:10:34;99812.59;;;24.62;100.00
34243;BME280;20504;43.214;27.920;2023-06-22T02:13:04;99737.94;;;24.46;100.00
34243;BME280;20504;43.214;27.920;2023-06-22T02:15:30;99757.56;;;24.61;100.00
34243;BME280;20504;43.214;27.920;2023-06-22T02:17:56;99757.94;;;24.52;100.00
34243;BME280;20504;43.214;27.920;2023-06-22T02:20:23;99743.59;;;24.38;100.00
34243;BME280;20504;43.214;27.920;2023-06-22T02:22:50;99780.91;;;24.56;100.00
34243;BME280;20504;43.214;27.920;2023-06-22T02:25:17;99807.59;;;24.65;100.00
34243;BME280;20504;43.214;27.920;2023-06-22T02:27:49;99805.50;;;24.67;100.00
34243;BME280;20504;43.214;27.920;2023-06-22T02:30:15;99790.72;;;24.76;100.00
34243;BME280;20504;43.214;27.920;2023-06-22T02:32:41;99769.03;;;24.76;100.00
34243;BME280;20504;43.214;27.920;2023-06-22T02:35:08;99719.63;;;24.55;100.00
34243;BME280;20504;43.214;27.920;2023-06-22T02:37:38;99730.66;;;24.60;100.00
34243;BME280;20504;43.214;27.920;2023-06-22T02:40:07;99735.44;;;24.71;100.00
34243;BME280;20504;43.214;27.920;2023-06-22T02:42:37;99747.75;;;24.73;100.00
34243;BME280;20504;43.214;27.920;2023-06-22T02:45:03;99759.41;;;24.87;100.00
34243;BME280;20504;43.214;27.920;2023-06-22T02:47:28;99709.38;;;24.70;100.00
34243;BME280;20504;43.214;27.920;2023-06-22T02:53:25;99708.50;;;24.89;100.00
34243;BME280;20504;43.214;27.920;2023-06-22T02:55:50;99717.91;;;25.00;100.00
34243;BME280;20504;43.214;27.920;2023-06-22T02:58:16;99653.47;;;24.82;100.00
34243;BME280;20504;43.214;27.920;2023-06-22T03:00:41;99705.38;;;24.86;100.00
34243;BME280;20504;43.214;27.920;2023-06-22T03:03:07;99670.34;;;24.84;100.00
34243;BME280;20504;43.214;27.920;2023-06-22T03:05:32;99763.41;;;25.11;100.00
34243;BME280;20504;43.214;27.920;2023-06-22T03:08:00;99707.25;;;24.98;100.00
34243;BME280;20504;43.214;27.920;2023-06-22T03:10:26;99714.78;;;24.96;100.00
34243;BME280;20504;43.214;27.920;2023-06-22T03:12:51;99752.13;;;25.01;100.00
34243;BME280;20504;43.214;27.920;2023-06-22T03:15:16;99759.63;;;25.12;100.00
34243;BME280;20504;43.214;27.920;2023-06-22T03:17:42;99758.16;;;25.10;100.00
34243;BME280;20504;43.214;27.920;2023-06-22T03:20:09;99720.81;;;25.05;100.00
34243;BME280;20504;43.214;27.920;2023-06-22T03:22:39;99781.53;;;25.17;100.00
34243;BME280;20504;43.214;27.920;2023-06-22T03:25:07;99832.03;;;25.31;100.00
34243;BME280;20504;43.214;27.920;2023-06-22T03:27:39;99783.63;;;25.09;100.00
34243;BME280;20504;43.214;27.920;2023-06-22T03:30:07;99813.88;;;25.32;100.00
34243;BME280;20504;43.214;27.920;2023-06-22T03:32:34;99825.72;;;25.44;100.00
34243;BME280;20504;43.214;27.920;2023-06-22T03:35:02;99839.31;;;25.51;100.00
34243;BME280;20504;43.214;27.920;2023-06-22T03:37:30;99751.41;;;25.39;100.00
34243;BME280;20504;43.214;27.920;2023-06-22T03:39:55;99797.97;;;25.42;100.00
34243;BME280;20504;43.214;27.920;2023-06-22T03:42:21;99812.13;;;25.57;100.00
34243;BME280;20504;43.214;27.920;2023-06-22T03:44:47;99852.81;;;25.77;100.00
34243;BME280;20504;43.214;27.920;2023-06-22T03:47:12;99850.28;;;25.82;100.00
34243;BME280;20504;43.214;27.920;2023-06-22T03:49:38;99792.03;;;25.78;100.00
34243;BME280;20504;43.214;27.920;2023-06-22T03:52:04;99733.88;;;25.92;100.00
34243;BME280;20504;43.214;27.920;2023-06-22T03:54:30;99671.63;;;25.91;100.00
34243;BME280;20504;43.214;27.920;2023-06-22T03:56:59;99702.91;;;26.00;100.00
34243;BME280;20504;43.214;27.920;2023-06-22T03:59:24;99767.03;;;26.08;100.00
34243;BME280;20504;43.214;27.920;2023-06-22T04:01:50;99761.31;;;26.16;100.00
34243;BME280;20504;43.214;27.920;2023-06-22T04:04:17;99736.94;;;26.03;100.00
34243;BME280;20504;43.214;27.920;2023-06-22T04:06:43;99763.03;;;26.10;100.00
34243;BME280;20504;43.214;27.920;2023-06-22T04:09:09;99750.69;;;26.14;100.00
34243;BME280;20504;43.214;27.920;2023-06-22T04:11:36;99854.28;;;26.31;100.00
34243;BME280;20504;43.214;27.920;2023-06-22T04:14:01;99689.00;;;26.15;100.00
34243;BME280;20504;43.214;27.920;2023-06-22T04:16:27;99684.47;;;26.09;100.00
34243;BME280;20504;43.214;27.920;2023-06-22T04:18:52;99775.44;;;26.38;100.00
34243;BME280;20504;43.214;27.920;2023-06-22T04:21:24;99768.63;;;26.53;100.00
34243;BME280;20504;43.214;27.920;2023-06-22T04:23:50;99797.69;;;26.60;100.00
34243;BME280;20504;43.214;27.920;2023-06-22T04:26:17;99784.84;;;26.42;100.00
34243;BME280;20504;43.214;27.920;2023-06-22T04:28:49;99759.03;;;26.51;100.00
34243;BME280;20504;43.214;27.920;2023-06-22T04:31:22;99792.50;;;26.76;100.00
34243;BME280;20504;43.214;27.920;2023-06-22T04:33:52;99837.88;;;26.82;100.00
34243;BME280;20504;43.214;27.920;2023-06-22T04:36:18;99866.28;;;26.86;100.00
34243;BME280;20504;43.214;27.920;2023-06-22T04:38:44;100012.47;;;27.11;100.00
34243;BME280;20504;43.214;27.920;2023-06-22T04:41:10;100095.16;;;27.10;100.00
34243;BME280;20504;43.214;27.920;2023-06-22T04:43:40;100092.44;;;27.17;100.00
34243;BME280;20504;43.214;27.920;2023-06-22T04:46:05;100169.59;;;27.35;100.00
34243;BME280;20504;43.214;27.920;2023-06-22T04:48:34;100144.75;;;27.19;100.00
34243;BME280;20504;43.214;27.920;2023-06-22T04:51:01;100284.53;;;27.44;100.00
34243;BME280;20504;43.214;27.920;2023-06-22T04:53:30;100345.06;;;27.66;100.00
34243;BME280;20504;43.214;27.920;2023-06-22T04:55:56;100332.06;;;27.55;100.00
34243;BME280;20504;43.214;27.920;2023-06-22T04:58:22;100483.34;;;27.90;100.00
34243;BME280;20504;43.214;27.920;2023-06-22T05:00:47;100659.84;;;28.01;100.00
34243;BME280;20504;43.214;27.920;2023-06-22T05:03:13;100763.44;;;28.21;100.00
34243;BME280;20504;43.214;27.920;2023-06-22T05:05:44;100854.75;;;28.32;100.00
34243;BME280;20504;43.214;27.920;2023-06-22T05:08:22;101028.34;;;28.53;100.00
34243;BME280;20504;43.214;27.920;2023-06-22T05:10:57;101218.19;;;28.69;100.00
34243;BME280;20504;43.214;27.920;2023-06-22T05:13:25;101446.13;;;29.07;100.00
34243;BME280;20504;43.214;27.920;2023-06-22T05:15:54;101718.28;;;29.51;100.00
34243;BME280;20504;43.214;27.920;2023-06-22T05:18:31;101886.69;;;29.52;100.00
34243;BME280;20504;43.214;27.920;2023-06-22T05:21:07;101946.44;;;29.55;100.00
34243;BME280;20504;43.214;27.920;2023-06-22T05:23:42;102137.09;;;29.91;100.00
34243;BME280;20504;43.214;27.920;2023-06-22T05:26:07;102233.44;;;30.01;100.00
34243;BME280;20504;43.214;27.920;2023-06-22T05:28:34;102209.38;;;29.96;100.00
34243;BME280;20504;43.214;27.920;2023-06-22T05:31:01;102150.03;;;29.82;100.00
34243;BME280;20504;43.214;27.920;2023-06-22T05:33:27;102031.88;;;29.57;100.00
34243;BME280;20504;43.214;27.920;2023-06-22T05:35:57;102053.34;;;29.45;100.00
34243;BME280;20504;43.214;27.920;2023-06-22T05:38:25;102118.31;;;29.73;100.00
34243;BME280;20504;43.214;27.920;2023-06-22T05:41:01;102246.06;;;29.64;100.00
34243;BME280;20504;43.214;27.920;2023-06-22T05:43:27;102372.94;;;30.01;100.00
34243;BME280;20504;43.214;27.920;2023-06-22T05:46:05;102459.53;;;29.85;100.00
34243;BME280;20504;43.214;27.920;2023-06-22T05:48:31;102600.09;;;30.24;100.00
34243;BME280;20504;43.214;27.920;2023-06-22T05:50:57;102762.56;;;30.31;100.00
34243;BME280;20504;43.214;27.920;2023-06-22T05:53:24;102975.63;;;30.52;100.00
34243;BME280;20504;43.214;27.920;2023-06-22T05:56:25;103102.06;;;30.47;100.00
34243;BME280;20504;43.214;27.920;2023-06-22T05:58:50;103304.81;;;30.63;100.00
34243;BME280;20504;43.214;27.920;2023-06-22T06:01:16;103453.34;;;30.83;100.00
34243;BME280;20504;43.214;27.920;2023-06-22T06:03:42;103383.22;;;30.64;100.00
34243;BME280;20504;43.214;27.920;2023-06-22T06:06:15;103257.56;;;30.61;100.00
34243;BME280;20504;43.214;27.920;2023-06-22T06:08:41;103615.28;;;31.16;100.00
34243;BME280;20504;43.214;27.920;2023-06-22T06:11:07;103432.84;;;30.87;100.00
34243;BME280;20504;43.214;27.920;2023-06-22T06:13:35;103409.28;;;30.68;100.00
34243;BME280;20504;43.214;27.920;2023-06-22T06:16:01;103647.16;;;31.17;100.00
34243;BME280;20504;43.214;27.920;2023-06-22T06:18:28;103764.13;;;31.26;100.00
34243;BME280;20504;43.214;27.920;2023-06-22T06:21:02;103914.50;;;31.48;100.00
34243;BME280;20504;43.214;27.920;2023-06-22T06:23:29;104020.97;;;31.35;100.00
34243;BME280;20504;43.214;27.920;2023-06-22T06:25:58;103942.84;;;31.12;100.00
34243;BME280;20504;43.214;27.920;2023-06-22T06:28:24;104089.78;;;31.42;100.00
34243;BME280;20504;43.214;27.920;2023-06-22T06:30:52;103993.94;;;31.13;100.00
34243;BME280;20504;43.214;27.920;2023-06-22T06:33:19;104102.53;;;31.43;100.00
34243;BME280;20504;43.214;27.920;2023-06-22T06:35:47;104136.88;;;31.37;100.00
34243;BME280;20504;43.214;27.920;2023-06-22T06:38:13;104298.97;;;31.73;100.00
34243;BME280;20504;43.214;27.920;2023-06-22T06:40:39;104494.38;;;31.67;100.00
34243;BME280;20504;43.214;27.920;2023-06-22T06:43:05;104535.75;;;31.84;100.00
34243;BME280;20504;43.214;27.920;2023-06-22T06:45:30;104706.63;;;32.27;100.00
34243;BME280;20504;43.214;27.920;2023-06-22T06:48:03;104709.66;;;32.23;100.00
34243;BME280;20504;43.214;27.920;2023-06-22T06:50:29;104707.72;;;32.05;100.00
34243;BME280;20504;43.214;27.920;2023-06-22T06:53:16;105036.50;;;32.56;100.00
34243;BME280;20504;43.214;27.920;2023-06-22T06:55:41;104825.53;;;31.77;100.00
34243;BME280;20504;43.214;27.920;2023-06-22T06:58:12;104777.81;;;31.69;100.00
34243;BME280;20504;43.214;27.920;2023-06-22T07:00:38;104806.66;;;31.84;100.00
34243;BME280;20504;43.214;27.920;2023-06-22T07:03:05;104800.59;;;31.80;100.00
34243;BME280;20504;43.214;27.920;2023-06-22T07:05:32;104779.69;;;31.99;100.00
34243;BME280;20504;43.214;27.920;2023-06-22T07:07:59;104843.75;;;32.09;100.00
34243;BME280;20504;43.214;27.920;2023-06-22T07:10:25;104660.50;;;31.71;100.00
34243;BME280;20504;43.214;27.920;2023-06-22T07:12:51;104685.88;;;31.84;100.00
34243;BME280;20504;43.214;27.920;2023-06-22T07:15:19;104707.88;;;31.63;100.00
34243;BME280;20504;43.214;27.920;2023-06-22T07:17:47;104729.59;;;31.76;100.00
34243;BME280;20504;43.214;27.920;2023-06-22T07:20:12;104905.94;;;31.89;100.00
34243;BME280;20504;43.214;27.920;2023-06-22T07:22:43;105040.97;;;31.94;100.00
34243;BME280;20504;43.214;27.920;2023-06-22T07:25:15;105186.69;;;32.13;100.00
34243;BME280;20504;43.214;27.920;2023-06-22T07:28:03;105415.31;;;32.50;100.00
34243;BME280;20504;43.214;27.920;2023-06-22T07:30:35;105463.81;;;32.29;100.00
34243;BME280;20504;43.214;27.920;2023-06-22T07:33:02;105455.56;;;32.29;100.00
34243;BME280;20504;43.214;27.920;2023-06-22T07:35:39;105375.13;;;32.05;100.00
34243;BME280;20504;43.214;27.920;2023-06-22T07:38:08;105410.19;;;32.12;100.00
34243;BME280;20504;43.214;27.920;2023-06-22T07:40:34;105645.72;;;32.57;100.00
34243;BME280;20504;43.214;27.920;2023-06-22T07:43:02;105324.94;;;32.03;100.00
34243;BME280;20504;43.214;27.920;2023-06-22T07:45:29;105302.78;;;32.15;100.00
34243;BME280;20504;43.214;27.920;2023-06-22T07:47:55;105364.88;;;32.18;100.00
34243;BME280;20504;43.214;27.920;2023-06-22T07:50:20;105714.41;;;32.80;100.00
34243;BME280;20504;43.214;27.920;2023-06-22T07:52:47;105669.44;;;32.46;100.00
34243;BME280;20504;43.214;27.920;2023-06-22T07:55:14;105583.50;;;32.56;100.00
34243;BME280;20504;43.214;27.920;2023-06-22T07:57:43;105586.38;;;32.54;100.00
34243;BME280;20504;43.214;27.920;2023-06-22T08:00:10;105293.94;;;32.12;100.00
34243;BME280;20504;43.214;27.920;2023-06-22T08:02:44;105416.69;;;32.45;100.00
34243;BME280;20504;43.214;27.920;2023-06-22T08:05:14;105401.06;;;32.57;100.00
34243;BME280;20504;43.214;27.920;2023-06-22T08:07:42;105505.88;;;32.86;100.00
34243;BME280;20504;43.214;27.920;2023-06-22T08:10:11;105328.66;;;32.67;100.00
34243;BME280;20504;43.214;27.920;2023-06-22T08:12:39;105455.34;;;32.98;100.00
34243;BME280;20504;43.214;27.920;2023-06-22T08:15:06;105488.81;;;33.14;100.00
34243;BME280;20504;43.214;27.920;2023-06-22T08:17:38;105171.41;;;32.52;100.00
34243;BME280;20504;43.214;27.920;2023-06-22T08:20:05;105194.31;;;32.74;100.00
34243;BME280;20504;43.214;27.920;2023-06-22T08:22:39;105026.09;;;32.59;100.00
34243;BME280;20504;43.214;27.920;2023-06-22T08:25:05;105131.50;;;32.79;100.00
34243;BME280;20504;43.214;27.920;2023-06-22T08:27:31;104904.22;;;32.49;100.00
34243;BME280;20504;43.214;27.920;2023-06-22T08:29:59;104985.88;;;32.68;100.00
34243;BME280;20504;43.214;27.920;2023-06-22T08:32:29;104969.38;;;32.58;100.00
34243;BME280;20504;43.214;27.920;2023-06-22T08:34:56;104979.06;;;32.62;100.00
34243;BME280;20504;43.214;27.920;2023-06-22T08:37:22;104991.75;;;32.53;100.00
34243;BME280;20504;43.214;27.920;2023-06-22T08:39:50;105202.69;;;32.93;100.00
34243;BME280;20504;43.214;27.920;2023-06-22T08:42:20;105170.88;;;32.79;100.00
34243;BME280;20504;43.214;27.920;2023-06-22T08:44:46;105186.88;;;32.86;100.00
34243;BME280;20504;43.214;27.920;2023-06-22T08:47:11;104990.41;;;32.38;100.00
34243;BME280;20504;43.214;27.920;2023-06-22T08:49:39;104703.41;;;32.12;100.00
34243;BME280;20504;43.214;27.920;2023-06-22T08:52:06;104637.06;;;32.07;100.00
34243;BME280;20504;43.214;27.920;2023-06-22T08:54:33;104671.44;;;32.11;100.00
34243;BME280;20504;43.214;27.920;2023-06-22T08:57:09;104760.81;;;32.24;100.00
34243;BME280;20504;43.214;27.920;2023-06-22T08:59:38;105033.16;;;32.82;100.00
34243;BME280;20504;43.214;27.920;2023-06-22T09:02:04;105144.25;;;33.01;100.00
34243;BME280;20504;43.214;27.920;2023-06-22T09:04:33;105054.19;;;32.72;100.00
34243;BME280;20504;43.214;27.920;2023-06-22T09:07:02;105041.72;;;32.68;100.00
34243;BME280;20504;43.214;27.920;2023-06-22T09:09:29;105060.47;;;32.53;100.00
34243;BME280;20504;43.214;27.920;2023-06-22T09:12:08;105030.88;;;32.67;100.00
34243;BME280;20504;43.214;27.920;2023-06-22T09:14:33;104651.03;;;31.94;100.00
34243;BME280;20504;43.214;27.920;2023-06-22T09:17:05;104649.03;;;31.96;100.00
34243;BME280;20504;43.214;27.920;2023-06-22T09:19:30;104415.50;;;31.59;100.00
34243;BME280;20504;43.214;27.920;2023-06-22T09:21:58;104402.50;;;31.61;100.00
34243;BME280;20504;43.214;27.920;2023-06-22T09:24:25;104227.22;;;31.48;100.00
34243;BME280;20504;43.214;27.920;2023-06-22T09:26:50;104015.34;;;31.37;100.00
34243;BME280;20504;43.214;27.920;2023-06-22T09:29:18;103719.56;;;30.88;100.00
34243;BME280;20504;43.214;27.920;2023-06-22T09:31:44;103637.69;;;31.11;100.00
34243;BME280;20504;43.214;27.920;2023-06-22T09:34:10;103467.97;;;30.92;100.00
34243;BME280;20504;43.214;27.920;2023-06-22T09:36:37;103635.66;;;31.39;100.00
34243;BME280;20504;43.214;27.920;2023-06-22T09:39:11;103595.56;;;31.38;100.00
34243;BME280;20504;43.214;27.920;2023-06-22T09:41:49;103570.19;;;31.36;100.00
34243;BME280;20504;43.214;27.920;2023-06-22T09:44:19;103558.03;;;31.39;100.00
34243;BME280;20504;43.214;27.920;2023-06-22T09:46:46;103642.34;;;31.62;100.00
34243;BME280;20504;43.214;27.920;2023-06-22T09:49:11;103755.38;;;31.92;100.00
34243;BME280;20504;43.214;27.920;2023-06-22T09:51:37;103710.72;;;31.82;100.00
34243;BME280;20504;43.214;27.920;2023-06-22T09:54:02;103419.13;;;31.21;100.00
34243;BME280;20504;43.214;27.920;2023-06-22T09:56:28;103516.00;;;31.30;100.00
34243;BME280;20504;43.214;27.920;2023-06-22T09:58:55;103497.78;;;31.21;100.00
34243;BME280;20504;43.214;27.920;2023-06-22T10:01:20;103608.03;;;31.32;100.00
34243;BME280;20504;43.214;27.920;2023-06-22T10:03:46;103762.13;;;31.54;100.00
34243;BME280;20504;43.214;27.920;2023-06-22T10:06:13;104027.94;;;32.02;100.00
34243;BME280;20504;43.214;27.920;2023-06-22T10:08:39;104298.34;;;32.16;100.00
34243;BME280;20504;43.214;27.920;2023-06-22T10:11:05;104435.66;;;32.35;100.00
34243;BME280;20504;43.214;27.920;2023-06-22T10:13:31;104331.69;;;32.03;100.00
34243;BME280;20504;43.214;27.920;2023-06-22T10:15:57;104396.97;;;32.09;100.00
34243;BME280;20504;43.214;27.920;2023-06-22T10:18:22;104491.94;;;31.92;100.00
34243;BME280;20504;43.214;27.920;2023-06-22T10:20:50;104611.22;;;32.29;100.00
34243;BME280;20504;43.214;27.920;2023-06-22T10:23:17;104634.91;;;32.30;100.00
34243;BME280;20504;43.214;27.920;2023-06-22T10:25:44;104595.13;;;32.05;100.00
34243;BME280;20504;43.214;27.920;2023-06-22T10:28:09;104801.53;;;32.50;100.00
34243;BME280;20504;43.214;27.920;2023-06-22T10:30:36;104884.63;;;32.33;100.00
34243;BME280;20504;43.214;27.920;2023-06-22T10:33:01;104964.59;;;32.60;100.00
34243;BME280;20504;43.214;27.920;2023-06-22T10:35:27;104911.31;;;32.51;100.00
34243;BME280;20504;43.214;27.920;2023-06-22T10:37:52;105048.06;;;32.80;100.00
34243;BME280;20504;43.214;27.920;2023-06-22T10:40:21;104977.44;;;32.80;100.00
34243;BME280;20504;43.214;27.920;2023-06-22T10:42:46;104857.66;;;32.47;100.00
34243;BME280;20504;43.214;27.920;2023-06-22T10:45:12;104889.59;;;32.89;100.00
34243;BME280;20504;43.214;27.920;2023-06-22T10:47:37;104899.72;;;33.07;100.00
34243;BME280;20504;43.214;27.920;2023-06-22T10:50:05;104924.84;;;33.33;100.00
34243;BME280;20504;43.214;27.920;2023-06-22T10:52:31;105013.75;;;33.34;100.00
34243;BME280;20504;43.214;27.920;2023-06-22T10:54:57;104932.47;;;33.10;100.00
34243;BME280;20504;43.214;27.920;2023-06-22T10:57:22;104821.84;;;33.07;100.00
34243;BME280;20504;43.214;27.920;2023-06-22T10:59:48;104571.66;;;32.68;100.00
34243;BME280;20504;43.214;27.920;2023-06-22T11:02:14;104720.25;;;32.96;100.00
34243;BME280;20504;43.214;27.920;2023-06-22T11:04:39;104837.63;;;33.05;100.00
34243;BME280;20504;43.214;27.920;2023-06-22T11:07:10;104943.03;;;33.25;100.00
34243;BME280;20504;43.214;27.920;2023-06-22T11:09:35;104673.09;;;32.62;100.00
34243;BME280;20504;43.214;27.920;2023-06-22T11:12:01;104613.50;;;32.62;100.00
34243;BME280;20504;43.214;27.920;2023-06-22T11:14:26;104704.34;;;32.80;100.00
34243;BME280;20504;43.214;27.920;2023-06-22T11:16:52;104504.97;;;32.66;100.00
34243;BME280;20504;43.214;27.920;2023-06-22T11:19:18;104201.59;;;32.04;100.00
34243;BME280;20504;43.214;27.920;2023-06-22T11:21:49;104027.97;;;31.75;100.00
34243;BME280;20504;43.214;27.920;2023-06-22T11:24:16;103977.22;;;31.97;100.00
34243;BME280;20504;43.214;27.920;2023-06-22T11:26:46;104186.13;;;32.31;100.00
34243;BME280;20504;43.214;27.920;2023-06-22T11:29:34;104421.34;;;32.69;100.00
34243;BME280;20504;43.214;27.920;2023-06-22T11:32:06;104624.72;;;32.98;100.00
34243;BME280;20504;43.214;27.920;2023-06-22T11:34:32;105437.50;;;34.08;100.00
34243;BME280;20504;43.214;27.920;2023-06-22T11:36:57;106629.53;;;35.36;100.00
34243;BME280;20504;43.214;27.920;2023-06-22T11:39:35;107480.63;;;36.14;100.00
34243;BME280;20504;43.214;27.920;2023-06-22T11:42:02;107909.34;;;36.72;100.00
34243;BME280;20504;43.214;27.920;2023-06-22T11:44:29;107917.63;;;36.14;100.00
34243;BME280;20504;43.214;27.920;2023-06-22T11:46:58;108268.03;;;36.93;100.00
34243;BME280;20504;43.214;27.920;2023-06-22T11:49:26;108868.72;;;37.37;100.00
34243;BME280;20504;43.214;27.920;2023-06-22T11:51:58;108268.28;;;36.42;100.00
34243;BME280;20504;43.214;27.920;2023-06-22T11:54:24;108007.66;;;36.03;100.00
34243;BME280;20504;43.214;27.920;2023-06-22T11:56:49;108500.72;;;36.76;100.00
34243;BME280;20504;43.214;27.920;2023-06-22T11:59:19;107623.75;;;35.23;100.00
34243;BME280;20504;43.214;27.920;2023-06-22T12:01:45;108316.34;;;36.72;100.00
34243;BME280;20504;43.214;27.920;2023-06-22T12:04:11;108738.50;;;37.36;100.00
34243;BME280;20504;43.214;27.920;2023-06-22T12:06:38;108881.13;;;37.30;100.00
34243;BME280;20504;43.214;27.920;2023-06-22T12:09:11;109211.91;;;37.49;100.00
34243;BME280;20504;43.214;27.920;2023-06-22T12:11:44;109539.81;;;38.17;100.00
34243;BME280;20504;43.214;27.920;2023-06-22T12:14:17;110077.81;;;38.81;100.00
34243;BME280;20504;43.214;27.920;2023-06-22T12:16:58;110422.78;;;39.46;100.00
34243;BME280;20504;43.214;27.920;2023-06-22T12:19:25;110580.22;;;39.53;100.00
34243;BME280;20504;43.214;27.920;2023-06-22T12:21:54;110403.09;;;39.02;100.00
34243;BME280;20504;43.214;27.920;2023-06-22T12:24:20;110646.50;;;39.41;100.00
34243;BME280;20504;43.214;27.920;2023-06-22T12:26:45;111372.69;;;40.81;100.00
34243;BME280;20504;43.214;27.920;2023-06-22T12:29:12;111442.81;;;40.66;100.00
34243;BME280;20504;43.214;27.920;2023-06-22T12:31:40;110820.56;;;39.49;100.00
34243;BME280;20504;43.214;27.920;2023-06-22T12:34:06;110937.72;;;39.71;100.00
34243;BME280;20504;43.214;27.920;2023-06-22T12:36:35;111307.50;;;40.22;100.00
34243;BME280;20504;43.214;27.920;2023-06-22T12:39:07;111299.19;;;40.20;100.00
34243;BME280;20504;43.214;27.920;2023-06-22T12:41:32;111639.44;;;40.82;100.00
34243;BME280;20504;43.214;27.920;2023-06-22T12:43:58;112067.94;;;41.73;100.00
34243;BME280;20504;43.214;27.920;2023-06-22T12:46:25;112059.78;;;41.62;100.00
34243;BME280;20504;43.214;27.920;2023-06-22T12:48:50;112012.59;;;41.52;100.00
34243;BME280;20504;43.214;27.920;2023-06-22T12:51:22;111671.69;;;40.57;100.00
34243;BME280;20504;43.214;27.920;2023-06-22T12:54:11;111490.91;;;40.42;100.00